createdAt,value
2022-09-20T00:00:17.148Z,2.65
2022-09-20T00:02:44.233Z,2.03
2022-09-20T00:05:12.414Z,1.00
2022-09-20T00:07:39.286Z,1.45
2022-09-20T00:10:06.878Z,1.08
2022-09-20T00:12:33.671Z,0.98
2022-09-20T00:15:00.441Z,0.95
2022-09-20T00:17:27.231Z,0.63
2022-09-20T00:19:53.969Z,0.70
2022-09-20T00:22:22.325Z,2.20
2022-09-20T00:24:49.274Z,1.63
2022-09-20T00:27:16.124Z,1.40
2022-09-20T00:29:42.940Z,1.00
2022-09-20T00:32:09.718Z,3.88
2022-09-20T00:34:36.490Z,0.65
2022-09-20T00:37:03.363Z,2.90
2022-09-20T00:39:31.674Z,2.08
2022-09-20T00:41:58.581Z,4.50
2022-09-20T00:44:57.396Z,1.48
2022-09-20T00:47:40.893Z,3.40
2022-09-20T00:50:28.598Z,2.13
2022-09-20T00:53:02.907Z,3.03
2022-09-20T00:55:32.913Z,1.98
2022-09-20T00:58:00.864Z,3.28
2022-09-20T01:00:28.504Z,4.65
2022-09-20T01:03:00.971Z,2.05
2022-09-20T01:05:28.377Z,2.00
2022-09-20T01:07:57.146Z,3.20
2022-09-20T01:10:24.225Z,1.92
2022-09-20T01:12:54.073Z,3.05
2022-09-20T01:15:23.616Z,5.82
2022-09-20T01:17:54.820Z,2.15
2022-09-20T01:20:26.542Z,4.53
2022-09-20T01:23:17.525Z,3.33
2022-09-20T01:26:15.230Z,3.72
2022-09-20T01:28:46.584Z,1.83
2022-09-20T01:31:20.067Z,3.92
2022-09-20T01:33:52.689Z,2.53
2022-09-20T01:36:26.773Z,2.53
2022-09-20T01:39:08.924Z,2.40
2022-09-20T01:41:44.227Z,4.47
2022-09-20T01:44:27.489Z,3.05
2022-09-20T01:47:03.813Z,3.85
2022-09-20T01:49:45.143Z,2.58
2022-09-20T01:52:56.048Z,3.92
2022-09-20T01:56:24.804Z,2.60
2022-09-20T01:59:26.169Z,2.83
2022-09-20T02:02:20.598Z,3.63
2022-09-20T02:05:38.472Z,7.13
2022-09-20T02:08:31.129Z,3.17
2022-09-20T02:13:57.151Z,2.10
2022-09-20T02:16:50.752Z,2.63
2022-09-20T02:19:50.200Z,4.13
2022-09-20T02:22:31.217Z,2.70
2022-09-20T02:25:14.500Z,2.22
2022-09-20T02:28:01.295Z,3.83
2022-09-20T02:30:46.217Z,2.85
2022-09-20T02:33:40.491Z,3.58
2022-09-20T02:36:30.913Z,2.95
2022-09-20T02:39:07.549Z,2.38
2022-09-20T02:41:55.920Z,1.77
2022-09-20T02:44:38.875Z,4.28
2022-09-20T02:47:18.213Z,3.88
2022-09-20T02:50:01.003Z,2.42
2022-09-20T02:52:37.786Z,2.28
2022-09-20T02:55:14.477Z,3.70
2022-09-20T02:57:53.378Z,2.80
2022-09-20T03:00:25.722Z,2.10
2022-09-20T03:05:47.794Z,3.15
2022-09-20T03:08:33.257Z,2.65
2022-09-20T03:11:15.826Z,2.75
2022-09-20T03:14:05.400Z,3.03
2022-09-20T03:16:51.316Z,3.92
2022-09-20T03:19:38.557Z,3.05
2022-09-20T03:22:26.373Z,3.08
2022-09-20T03:25:19.058Z,2.05
2022-09-20T03:28:03.634Z,2.05
2022-09-20T03:30:49.568Z,2.67
2022-09-20T03:33:28.246Z,3.20
2022-09-20T03:36:13.995Z,2.58
2022-09-20T03:39:09.276Z,1.95
2022-09-20T03:42:01.939Z,1.92
2022-09-20T03:47:40.302Z,2.45
2022-09-20T03:50:46.251Z,3.25
2022-09-20T03:53:49.978Z,1.23
2022-09-20T03:56:52.885Z,3.95
2022-09-20T04:02:37.998Z,3.15
2022-09-20T04:05:11.348Z,1.42
2022-09-20T04:07:57.129Z,1.95
2022-09-20T04:10:41.884Z,2.60
2022-09-20T04:13:35.719Z,1.60
2022-09-20T04:16:22.461Z,2.05
2022-09-20T04:18:57.616Z,2.13
2022-09-20T04:21:34.610Z,2.28
2022-09-20T04:24:09.673Z,2.42
2022-09-20T04:26:44.571Z,3.28
2022-09-20T04:29:33.509Z,1.88
2022-09-20T04:32:13.735Z,2.42
2022-09-20T04:34:48.787Z,3.47
2022-09-20T04:37:27.595Z,1.42
2022-09-20T04:40:09.226Z,2.25
2022-09-20T04:43:30.058Z,5.07
2022-09-20T04:46:49.359Z,1.60
2022-09-20T04:50:22.817Z,2.83
2022-09-20T04:53:24.498Z,2.63
2022-09-20T04:55:57.477Z,2.63
2022-09-20T04:58:48.822Z,2.42
2022-09-20T05:02:21.646Z,2.60
2022-09-20T05:05:30.110Z,2.15
2022-09-20T05:08:59.116Z,2.30
2022-09-20T05:12:10.060Z,2.67
2022-09-20T05:15:07.914Z,2.22
2022-09-20T05:18:05.694Z,2.35
2022-09-20T05:21:13.006Z,3.03
2022-09-20T05:24:10.772Z,2.05
2022-09-20T05:27:00.144Z,2.40
2022-09-20T05:29:36.069Z,2.35
2022-09-20T05:32:12.499Z,2.58
2022-09-20T05:34:50.836Z,2.38
2022-09-20T05:37:35.797Z,4.50
2022-09-20T05:40:16.097Z,2.13
2022-09-20T05:42:54.473Z,1.67
2022-09-20T05:45:47.369Z,1.98
2022-09-20T05:48:21.737Z,2.65
2022-09-20T05:51:03.084Z,1.50
2022-09-20T05:53:57.990Z,2.33
2022-09-20T05:56:41.630Z,2.80
2022-09-20T05:59:30.228Z,3.80
2022-09-20T06:02:23.512Z,2.95
2022-09-20T06:05:01.399Z,2.97
2022-09-20T06:07:49.848Z,4.13
2022-09-20T06:10:48.167Z,2.00
2022-09-20T06:13:45.251Z,2.35
2022-09-20T06:16:22.555Z,3.40
2022-09-20T06:19:04.941Z,3.03
2022-09-20T06:21:46.580Z,4.63
2022-09-20T06:24:29.280Z,2.93
2022-09-20T06:26:59.404Z,4.57
2022-09-20T06:29:33.169Z,4.43
2022-09-20T06:31:59.932Z,2.35
2022-09-20T06:34:28.723Z,6.57
2022-09-20T06:37:10.368Z,3.95
2022-09-20T06:39:49.404Z,6.78
2022-09-20T06:42:16.217Z,3.20
2022-09-20T06:44:42.914Z,4.00
2022-09-20T06:47:10.669Z,2.08
2022-09-20T06:49:37.501Z,1.67
2022-09-20T06:52:06.028Z,5.68
2022-09-20T06:54:33.891Z,2.92
2022-09-20T06:57:05.791Z,3.38
2022-09-20T06:59:32.648Z,5.03
2022-09-20T07:01:59.638Z,4.00
2022-09-20T07:04:26.348Z,3.17
2022-09-20T07:06:59.215Z,3.40
2022-09-20T07:09:26.055Z,5.13
2022-09-20T07:11:52.824Z,2.45
2022-09-20T07:14:21.988Z,4.15
2022-09-20T07:16:48.884Z,7.88
2022-09-20T07:19:15.597Z,4.53
2022-09-20T07:21:42.448Z,10.75
2022-09-20T07:24:09.208Z,11.70
2022-09-20T07:26:37.257Z,9.30
2022-09-20T07:29:04.489Z,28.75
2022-09-20T07:31:32.710Z,47.00
2022-09-20T07:33:59.488Z,23.27
2022-09-20T07:36:26.335Z,5.93
2022-09-20T07:38:53.652Z,21.33
2022-09-20T07:41:20.905Z,8.00
2022-09-20T07:43:47.956Z,8.20
2022-09-20T07:46:14.941Z,3.95
2022-09-20T07:48:43.230Z,5.55
2022-09-20T07:51:13.110Z,6.20
2022-09-20T07:53:41.212Z,5.80
2022-09-20T07:56:12.889Z,3.85
2022-09-20T07:58:40.180Z,4.57
2022-09-20T08:01:09.639Z,4.75
2022-09-20T08:03:39.921Z,7.07
2022-09-20T08:06:12.296Z,7.45
2022-09-20T08:08:40.740Z,6.15
2022-09-20T08:11:10.553Z,3.67
2022-09-20T08:16:27.012Z,5.40
2022-09-20T08:18:56.416Z,5.90
2022-09-20T08:24:18.125Z,2.75
2022-09-20T08:26:45.310Z,5.32
2022-09-20T08:29:12.316Z,6.82
2022-09-20T08:31:39.990Z,5.80
2022-09-20T08:34:08.659Z,6.57
2022-09-20T08:36:40.507Z,4.90
2022-09-20T08:41:59.240Z,5.10
2022-09-20T08:44:35.135Z,6.63
2022-09-20T08:47:11.123Z,4.50
2022-09-20T08:49:38.708Z,7.40
2022-09-20T08:52:10.422Z,9.60
2022-09-20T08:54:37.475Z,6.43
2022-09-20T08:57:14.288Z,4.90
2022-09-20T08:59:41.797Z,10.07
2022-09-20T09:02:16.821Z,3.20
2022-09-20T09:04:44.389Z,5.03
2022-09-20T09:07:14.749Z,6.10
2022-09-20T09:09:44.277Z,4.75
2022-09-20T09:12:21.752Z,5.95
2022-09-20T09:14:51.038Z,3.72
2022-09-20T09:17:20.599Z,4.97
2022-09-20T09:19:50.329Z,5.38
2022-09-20T09:22:28.275Z,5.28
2022-09-20T09:25:26.929Z,11.35
2022-09-20T09:27:57.188Z,4.95
2022-09-20T09:30:28.186Z,5.68
2022-09-20T09:33:24.539Z,5.53
2022-09-20T09:35:58.151Z,4.97
2022-09-20T09:38:30.955Z,5.95
2022-09-20T09:41:00.460Z,4.50
2022-09-20T09:43:30.662Z,7.55
2022-09-20T09:46:19.579Z,5.40
2022-09-20T09:48:47.626Z,2.80
2022-09-20T09:51:17.759Z,4.88
2022-09-20T09:53:48.181Z,5.65
2022-09-20T09:56:35.051Z,5.18
2022-09-20T09:59:32.975Z,6.85
2022-09-20T10:02:17.408Z,6.07
2022-09-20T10:04:54.336Z,6.68
2022-09-20T10:07:37.555Z,4.13
2022-09-20T10:10:25.832Z,9.65
2022-09-20T10:13:11.877Z,6.00
2022-09-20T10:15:49.885Z,7.05
2022-09-20T10:18:35.971Z,5.45
2022-09-20T10:24:47.347Z,5.85
2022-09-20T10:27:41.976Z,4.30
2022-09-20T10:30:13.896Z,4.40
2022-09-20T10:32:58.376Z,5.78
2022-09-20T10:35:34.615Z,4.82
2022-09-20T10:38:17.030Z,4.85
2022-09-20T10:41:14.584Z,7.10
2022-09-20T10:44:05.395Z,4.88
2022-09-20T10:46:51.230Z,5.22
2022-09-20T10:49:28.265Z,4.63
2022-09-20T10:52:12.986Z,3.45
2022-09-20T10:55:02.637Z,8.07
2022-09-20T10:57:53.660Z,6.00
2022-09-20T11:00:30.886Z,5.32
2022-09-20T11:03:20.905Z,4.97
2022-09-20T11:10:15.664Z,3.60
2022-09-20T11:12:48.184Z,6.70
2022-09-20T11:15:24.220Z,3.60
2022-09-20T11:18:04.702Z,5.75
2022-09-20T11:20:40.513Z,4.57
2022-09-20T11:23:17.673Z,3.97
2022-09-20T11:25:49.771Z,3.15
2022-09-20T11:28:25.002Z,4.57
2022-09-20T11:31:03.721Z,4.20
2022-09-20T11:33:41.542Z,6.30
2022-09-20T11:36:16.028Z,3.95
2022-09-20T11:38:53.411Z,3.90
2022-09-20T11:41:27.664Z,4.63
2022-09-20T11:43:59.142Z,7.72
2022-09-20T11:49:02.633Z,6.43
2022-09-20T11:52:09.840Z,6.55
2022-09-20T11:55:18.332Z,5.20
2022-09-20T11:57:45.758Z,4.13
2022-09-20T12:00:13.019Z,2.90
2022-09-20T12:02:49.709Z,4.68
2022-09-20T12:05:30.295Z,2.33
2022-09-20T12:08:00.627Z,4.95
2022-09-20T12:10:33.204Z,5.55
2022-09-20T12:13:03.314Z,4.70
2022-09-20T12:15:34.558Z,4.40
2022-09-20T12:18:27.634Z,4.57
2022-09-20T12:21:06.717Z,2.95
2022-09-20T12:24:17.223Z,3.90
2022-09-20T12:26:47.375Z,3.47
2022-09-20T12:29:52.360Z,5.85
2022-09-20T12:32:54.818Z,4.15
2022-09-20T12:36:12.694Z,4.65
2022-09-20T12:38:49.357Z,4.45
2022-09-20T12:41:27.909Z,5.65
2022-09-20T12:44:02.528Z,6.28
2022-09-20T12:46:40.522Z,3.45
2022-09-20T12:49:25.180Z,3.42
2022-09-20T12:51:52.099Z,15.35
2022-09-20T12:54:22.677Z,17.50
2022-09-20T12:56:49.576Z,4.07
2022-09-20T12:59:24.690Z,16.08
2022-09-20T13:01:51.807Z,10.45
2022-09-20T13:05:01.606Z,6.72
2022-09-20T13:07:55.663Z,4.82
2022-09-20T13:10:30.774Z,2.60
2022-09-20T13:13:14.937Z,6.07
2022-09-20T13:15:50.309Z,10.27
2022-09-20T13:18:18.468Z,4.90
2022-09-20T13:20:46.234Z,4.03
2022-09-20T13:23:23.483Z,9.45
2022-09-20T13:25:53.367Z,8.13
2022-09-20T13:28:32.133Z,3.60
2022-09-20T13:31:25.424Z,4.32
2022-09-20T13:33:53.630Z,3.20
2022-09-20T13:36:27.872Z,2.50
2022-09-20T13:38:57.568Z,5.72
2022-09-20T13:41:30.244Z,6.78
2022-09-20T13:43:57.292Z,4.65
2022-09-20T13:46:30.760Z,3.65
2022-09-20T13:49:15.306Z,1.77
2022-09-20T13:51:42.072Z,6.13
2022-09-20T13:54:25.703Z,3.72
2022-09-20T13:56:58.638Z,2.20
2022-09-20T13:59:32.738Z,2.55
2022-09-20T14:02:00.582Z,3.75
2022-09-20T14:04:31.096Z,2.85
2022-09-20T14:06:59.931Z,4.27
2022-09-20T14:09:32.513Z,4.22
2022-09-20T14:12:03.306Z,4.80
2022-09-20T14:14:36.047Z,2.80
2022-09-20T14:17:07.174Z,3.83
2022-09-20T14:19:40.067Z,4.35
2022-09-20T14:22:13.557Z,4.15
2022-09-20T14:24:40.380Z,2.58
2022-09-20T14:27:18.930Z,4.18
2022-09-20T14:29:47.861Z,3.30
2022-09-20T14:32:34.251Z,2.22
2022-09-20T14:35:06.734Z,3.25
2022-09-20T14:37:41.594Z,4.28
2022-09-20T14:40:21.191Z,3.42
2022-09-20T14:42:54.506Z,5.03
2022-09-20T14:45:27.161Z,2.42
2022-09-20T14:48:01.581Z,5.47
2022-09-20T14:50:31.572Z,5.95
2022-09-20T14:53:22.618Z,5.63
2022-09-20T14:56:02.699Z,2.20
2022-09-20T14:58:31.711Z,1.60
2022-09-20T15:01:03.920Z,2.40
2022-09-20T15:03:57.467Z,2.25
2022-09-20T15:06:25.723Z,2.38
2022-09-20T15:08:52.713Z,4.15
2022-09-20T15:11:20.164Z,2.72
2022-09-20T15:13:48.224Z,3.65
2022-09-20T15:16:18.278Z,2.15
2022-09-20T15:18:48.352Z,6.53
2022-09-20T15:21:15.212Z,3.28
2022-09-20T15:23:42.050Z,3.28
2022-09-20T15:26:11.760Z,3.22
2022-09-20T15:28:39.044Z,4.03
2022-09-20T15:31:07.372Z,4.35
2022-09-20T15:33:34.087Z,3.63
2022-09-20T15:36:03.159Z,3.08
2022-09-20T15:38:30.166Z,3.08
2022-09-20T15:41:00.958Z,5.32
2022-09-20T15:43:27.702Z,3.80
2022-09-20T15:45:57.615Z,1.95
2022-09-20T15:48:28.684Z,2.20
2022-09-20T15:51:04.355Z,4.30
2022-09-20T15:53:33.917Z,2.05
2022-09-20T15:56:02.947Z,2.78
2022-09-20T15:58:35.624Z,3.53
2022-09-20T16:01:05.464Z,1.73
2022-09-20T16:03:35.045Z,3.65
2022-09-20T16:06:04.893Z,2.85
2022-09-20T16:08:32.976Z,2.50
2022-09-20T16:11:01.090Z,1.88
2022-09-20T16:13:28.419Z,1.98
2022-09-20T16:15:55.831Z,1.80
2022-09-20T16:18:22.836Z,3.25
2022-09-20T16:20:50.988Z,1.75
2022-09-20T16:23:17.784Z,2.22
2022-09-20T16:25:44.615Z,2.25
2022-09-20T16:28:11.396Z,2.60
2022-09-20T16:30:38.192Z,1.75
2022-09-20T16:33:05.084Z,2.40
2022-09-20T16:35:32.139Z,2.25
2022-09-20T16:38:00.425Z,3.53
2022-09-20T16:40:27.180Z,2.45
2022-09-20T16:42:54.563Z,3.97
2022-09-20T16:45:21.453Z,1.40
2022-09-20T16:47:48.345Z,4.05
2022-09-20T16:50:15.286Z,1.77
2022-09-20T16:52:42.965Z,4.82
2022-09-20T16:55:11.407Z,3.95
2022-09-20T16:57:38.250Z,1.73
2022-09-20T17:00:06.589Z,2.03
2022-09-20T17:02:33.421Z,2.83
2022-09-20T17:05:00.341Z,6.15
2022-09-20T17:07:27.183Z,3.05
2022-09-20T17:09:54.036Z,2.50
2022-09-20T17:12:22.537Z,7.10
2022-09-20T17:14:49.297Z,2.80
2022-09-20T17:17:16.074Z,6.25
2022-09-20T17:19:42.725Z,5.07
2022-09-20T17:22:09.647Z,4.82
2022-09-20T17:24:36.316Z,2.92
2022-09-20T17:27:03.808Z,2.63
2022-09-20T17:29:31.840Z,3.25
2022-09-20T17:31:58.743Z,3.00
2022-09-20T17:34:26.353Z,1.58
2022-09-20T17:36:54.039Z,4.15
2022-09-20T17:39:20.953Z,2.83
2022-09-20T17:41:49.345Z,1.48
2022-09-20T17:44:16.918Z,3.15
2022-09-20T17:46:47.422Z,2.85
2022-09-20T17:49:17.116Z,2.05
2022-09-20T17:51:45.936Z,1.60
2022-09-20T17:54:13.799Z,2.22
2022-09-20T17:56:42.251Z,1.02
2022-09-20T17:59:10.895Z,1.15
2022-09-20T18:01:39.098Z,1.45
2022-09-20T18:04:08.793Z,1.77
2022-09-20T18:06:37.902Z,4.68
2022-09-20T18:09:07.801Z,2.85
2022-09-20T18:11:37.627Z,1.63
2022-09-20T18:14:07.414Z,1.75
2022-09-20T18:16:34.808Z,2.75
2022-09-20T18:19:02.010Z,2.83
2022-09-20T18:21:31.610Z,2.35
2022-09-20T18:26:49.824Z,5.23
2022-09-20T18:29:18.014Z,3.63
2022-09-20T18:31:48.880Z,2.85
2022-09-20T18:34:18.307Z,4.20
2022-09-20T18:36:50.937Z,3.95
2022-09-20T18:39:19.729Z,4.15
2022-09-20T18:41:46.582Z,2.20
2022-09-20T18:44:13.251Z,2.58
2022-09-20T18:46:40.679Z,4.32
2022-09-20T18:49:09.859Z,1.63
2022-09-20T18:51:39.674Z,1.83
2022-09-20T18:54:10.222Z,2.90
2022-09-20T18:56:39.136Z,3.00
2022-09-20T18:59:12.691Z,4.50
2022-09-20T19:01:59.547Z,1.92
2022-09-20T19:05:12.717Z,1.88
2022-09-20T19:07:56.980Z,1.63
2022-09-20T19:10:38.710Z,2.78
2022-09-20T19:13:24.117Z,2.47
2022-09-20T19:16:11.639Z,2.38
2022-09-20T19:19:38.725Z,1.65
2022-09-20T19:22:23.203Z,1.42
2022-09-20T19:25:19.371Z,3.53
2022-09-20T19:27:48.495Z,3.47
2022-09-20T19:30:16.939Z,3.20
2022-09-20T19:32:44.810Z,4.63
2022-09-20T19:35:21.748Z,4.30
2022-09-20T19:38:06.668Z,2.92
2022-09-20T19:40:44.859Z,3.35
2022-09-20T19:43:48.748Z,3.50
2022-09-20T19:46:40.191Z,4.15
2022-09-20T19:49:15.487Z,4.60
2022-09-20T19:51:44.559Z,5.95
2022-09-20T19:54:13.911Z,3.20
2022-09-20T19:56:53.010Z,2.90
2022-09-20T19:59:23.770Z,2.10
2022-09-20T20:01:51.811Z,2.55
2022-09-20T20:04:19.628Z,2.63
2022-09-20T20:06:58.148Z,1.70
2022-09-20T20:09:37.535Z,2.15
2022-09-20T20:12:13.577Z,3.30
2022-09-20T20:14:51.973Z,2.75
2022-09-20T20:17:34.901Z,2.25
2022-09-20T20:20:26.138Z,4.57
2022-09-20T20:23:32.786Z,2.13
2022-09-20T20:26:07.702Z,2.22
2022-09-20T20:28:35.703Z,4.00
2022-09-20T20:31:04.582Z,1.58
2022-09-20T20:33:31.697Z,2.55
2022-09-20T20:36:01.471Z,2.13
2022-09-20T20:38:29.164Z,3.47
2022-09-20T20:41:00.714Z,5.55
2022-09-20T20:43:27.525Z,8.07
2022-09-20T20:45:54.218Z,9.63
2022-09-20T20:48:22.690Z,7.93
2022-09-20T20:51:02.458Z,1.83
2022-09-20T20:53:34.941Z,1.13
2022-09-20T20:56:04.989Z,1.70
2022-09-20T20:58:32.894Z,4.80
2022-09-20T21:01:12.569Z,2.17
2022-09-20T21:03:44.165Z,2.65
2022-09-20T21:06:11.407Z,2.22
2022-09-20T21:08:40.798Z,2.97
2022-09-20T21:11:10.436Z,1.48
2022-09-20T21:13:38.263Z,2.17
2022-09-20T21:16:10.557Z,1.80
2022-09-20T21:18:40.493Z,1.73
2022-09-20T21:21:16.694Z,3.53
2022-09-20T21:23:44.831Z,2.58
2022-09-20T21:26:13.149Z,1.50
2022-09-20T21:28:42.348Z,2.60
2022-09-20T21:31:11.367Z,3.00
2022-09-20T21:33:42.419Z,3.10
2022-09-20T21:36:11.699Z,1.52
2022-09-20T21:38:39.819Z,1.75
2022-09-20T21:41:09.951Z,2.05
2022-09-20T21:43:36.784Z,3.08
2022-09-20T21:46:03.718Z,2.25
2022-09-20T21:48:30.956Z,3.63
2022-09-20T21:51:05.607Z,2.45
2022-09-20T21:53:33.120Z,2.53
2022-09-20T21:56:02.551Z,2.35
2022-09-20T21:58:29.938Z,2.45
2022-09-20T22:01:01.676Z,1.98
2022-09-20T22:03:56.565Z,3.22
2022-09-20T22:06:27.188Z,2.90
2022-09-20T22:08:56.722Z,3.25
2022-09-20T22:11:25.185Z,2.22
2022-09-20T22:13:54.205Z,3.38
2022-09-20T22:16:24.057Z,2.00
2022-09-20T22:18:51.642Z,2.58
2022-09-20T22:21:21.863Z,3.13
2022-09-20T22:23:51.959Z,3.08
2022-09-20T22:26:21.821Z,2.78
2022-09-20T22:28:49.248Z,2.60
2022-09-20T22:31:19.742Z,2.80
2022-09-20T22:33:49.183Z,2.05
2022-09-20T22:36:18.926Z,2.22
2022-09-20T22:38:46.216Z,3.00
2022-09-20T22:41:16.422Z,3.05
2022-09-20T22:43:43.894Z,3.05
2022-09-20T22:46:13.302Z,2.55
2022-09-20T22:48:41.272Z,1.67
2022-09-20T22:51:11.106Z,1.60
2022-09-20T22:53:38.507Z,2.60
2022-09-20T22:56:08.829Z,2.50
2022-09-20T22:58:39.628Z,3.50
2022-09-20T23:01:13.558Z,5.72
2022-09-20T23:03:43.283Z,2.47
2022-09-20T23:06:15.558Z,3.13
2022-09-20T23:08:43.055Z,2.00
2022-09-20T23:11:10.376Z,2.30
2022-09-20T23:13:38.729Z,3.97
2022-09-20T23:16:14.131Z,2.60
2022-09-20T23:18:41.473Z,3.35
2022-09-20T23:21:08.622Z,3.17
2022-09-20T23:23:35.749Z,2.55
2022-09-20T23:26:08.259Z,3.75
2022-09-20T23:28:36.852Z,4.32
2022-09-20T23:31:07.426Z,2.53
2022-09-20T23:33:34.780Z,4.63
2022-09-20T23:36:05.967Z,3.15
2022-09-20T23:38:32.751Z,3.85
2022-09-20T23:41:03.586Z,4.57
2022-09-20T23:43:30.647Z,5.78
2022-09-20T23:45:57.551Z,3.53
2022-09-20T23:48:26.321Z,6.15
2022-09-20T23:50:53.322Z,12.50
2022-09-20T23:53:20.250Z,11.60
2022-09-20T23:55:47.392Z,13.18
2022-09-20T23:58:14.449Z,10.27
